createdAt,value
2022-12-01T00:00:34.118Z,22.80
2022-12-01T00:01:38.918Z,23.27
2022-12-01T00:02:43.199Z,23.55
2022-12-01T00:03:47.958Z,23.92
2022-12-01T00:04:50.103Z,22.52
2022-12-01T00:06:15.682Z,24.75
2022-12-01T00:07:17.779Z,22.98
2022-12-01T00:08:22.782Z,24.27
2022-12-01T00:09:51.273Z,23.02
2022-12-01T00:10:53.332Z,23.80
2022-12-01T00:11:59.059Z,24.10
2022-12-01T00:13:03.838Z,22.38
2022-12-01T00:14:09.503Z,22.77
2022-12-01T00:15:11.801Z,23.42
2022-12-01T00:16:18.468Z,22.65
2022-12-01T00:17:21.092Z,21.98
2022-12-01T00:18:27.492Z,21.63
2022-12-01T00:19:29.626Z,22.23
2022-12-01T00:20:36.448Z,23.58
2022-12-01T00:21:38.466Z,23.55
2022-12-01T00:22:45.586Z,24.02
2022-12-01T00:23:48.958Z,22.45
2022-12-01T00:24:56.189Z,23.05
2022-12-01T00:26:03.347Z,23.83
2022-12-01T00:27:08.068Z,24.88
2022-12-01T00:28:10.130Z,22.35
2022-12-01T00:29:14.761Z,24.60
2022-12-01T00:30:17.947Z,23.02
2022-12-01T00:31:23.498Z,23.35
2022-12-01T00:32:34.937Z,22.50
2022-12-01T00:33:41.468Z,22.52
2022-12-01T00:34:43.501Z,23.15
2022-12-01T00:35:48.303Z,22.17
2022-12-01T00:36:50.693Z,23.63
2022-12-01T00:37:55.450Z,23.77
2022-12-01T00:39:10.933Z,22.58
2022-12-01T00:40:18.484Z,23.48
2022-12-01T00:41:21.276Z,22.63
2022-12-01T00:42:26.572Z,23.52
2022-12-01T21:47:52.731Z,25.42
2022-12-01T21:48:59.900Z,26.75
2022-12-01T21:50:17.442Z,27.80
2022-12-01T21:51:30.968Z,28.02
2022-12-01T21:52:56.263Z,28.58
2022-12-01T21:54:01.922Z,29.60
2022-12-01T21:55:34.503Z,29.70
2022-12-01T21:56:42.884Z,29.98
2022-12-01T21:57:47.177Z,29.65
2022-12-01T21:58:56.134Z,30.88
2022-12-01T22:00:25.873Z,28.85
2022-12-01T22:01:38.376Z,29.10
2022-12-01T22:02:54.889Z,27.92
2022-12-01T22:04:10.364Z,29.38
2022-12-01T22:05:30.146Z,29.00
2022-12-01T22:06:44.256Z,29.90
2022-12-01T22:07:52.729Z,29.33
2022-12-01T22:09:00.641Z,31.20
2022-12-01T22:10:23.887Z,28.27
2022-12-01T22:11:30.116Z,28.75
2022-12-01T22:12:43.898Z,29.42
2022-12-01T22:13:50.715Z,28.67
2022-12-01T22:15:05.857Z,28.27
2022-12-01T22:16:16.348Z,28.00
2022-12-01T22:17:23.120Z,28.33
2022-12-01T22:18:35.436Z,29.10
2022-12-01T22:19:47.389Z,28.00
2022-12-01T22:20:49.409Z,27.98
2022-12-01T22:22:03.338Z,28.13
2022-12-01T22:23:10.992Z,27.90
2022-12-01T22:24:26.846Z,28.15
2022-12-01T22:25:37.787Z,27.55
2022-12-01T22:26:44.740Z,27.27
2022-12-01T22:27:49.451Z,28.67
2022-12-01T22:28:55.343Z,27.60
2022-12-01T22:30:03.587Z,27.33
2022-12-01T22:31:13.370Z,29.58
2022-12-01T22:32:40.066Z,26.80
2022-12-01T22:33:47.386Z,26.92
2022-12-01T22:34:53.758Z,29.23
2022-12-01T22:36:01.969Z,29.00
2022-12-01T22:37:11.680Z,29.15
2022-12-01T22:38:23.522Z,29.35
2022-12-01T22:39:34.063Z,27.48
2022-12-01T22:40:43.427Z,27.90
2022-12-01T22:41:48.267Z,28.27
2022-12-01T22:42:50.604Z,26.95
2022-12-01T22:43:59.621Z,27.85
2022-12-01T22:45:24.135Z,27.00
2022-12-01T22:46:33.779Z,27.38
2022-12-01T22:47:35.956Z,27.25
2022-12-01T22:48:42.765Z,28.60
2022-12-01T22:49:49.966Z,30.17
2022-12-01T22:50:52.262Z,28.08
2022-12-01T22:52:04.660Z,28.65
2022-12-01T22:53:12.781Z,28.75
2022-12-01T22:54:34.465Z,27.88
2022-12-01T22:55:36.581Z,26.33
2022-12-01T22:56:44.045Z,27.45
2022-12-01T22:57:46.255Z,27.40
2022-12-01T22:58:50.959Z,27.63
2022-12-01T22:59:54.241Z,28.50
2022-12-01T23:01:04.141Z,27.27
2022-12-01T23:02:21.555Z,26.92
2022-12-01T23:03:23.645Z,26.77
2022-12-01T23:04:31.346Z,27.33
2022-12-01T23:05:38.782Z,28.17
2022-12-01T23:06:58.376Z,28.27
2022-12-01T23:08:03.643Z,26.65
2022-12-01T23:09:05.872Z,28.05
2022-12-01T23:10:16.140Z,29.38
2022-12-01T23:11:18.346Z,28.30
2022-12-01T23:12:34.324Z,27.20
2022-12-01T23:13:36.453Z,26.55
2022-12-01T23:14:42.939Z,28.02
2022-12-01T23:15:49.039Z,28.73
2022-12-01T23:16:53.010Z,27.05
2022-12-01T23:18:08.649Z,27.90
2022-12-01T23:19:10.859Z,28.35
2022-12-01T23:20:34.280Z,27.85
2022-12-01T23:21:41.431Z,27.70
2022-12-01T23:22:46.096Z,27.25
2022-12-01T23:23:48.214Z,28.02
2022-12-01T23:24:52.965Z,28.30
2022-12-01T23:26:03.761Z,26.50
2022-12-01T23:27:06.712Z,27.85
2022-12-01T23:28:13.026Z,27.88
2022-12-01T23:29:15.192Z,27.55
2022-12-01T23:30:21.776Z,26.73
2022-12-01T23:31:24.172Z,28.95
2022-12-01T23:32:35.179Z,28.48
2022-12-01T23:33:37.386Z,29.67
2022-12-01T23:34:42.195Z,29.80
2022-12-01T23:35:48.066Z,27.75
2022-12-01T23:36:55.804Z,29.08
2022-12-01T23:38:02.112Z,29.63
2022-12-01T23:39:13.592Z,28.13
2022-12-01T23:40:19.501Z,28.33
2022-12-01T23:41:41.059Z,29.25
2022-12-01T23:42:43.172Z,29.65
2022-12-01T23:43:49.154Z,28.98
2022-12-01T23:44:51.567Z,27.00
2022-12-01T23:46:09.884Z,27.88
2022-12-01T23:47:17.991Z,28.73
2022-12-01T23:48:26.085Z,28.05
2022-12-01T23:49:31.680Z,28.95
2022-12-01T23:50:36.751Z,28.27
2022-12-01T23:51:40.992Z,30.10
2022-12-01T23:52:48.939Z,29.40
2022-12-01T23:53:51.685Z,29.90
2022-12-01T23:54:56.354Z,29.10
2022-12-01T23:56:05.098Z,29.30
2022-12-01T23:57:18.112Z,29.35
2022-12-01T23:58:20.657Z,26.92
2022-12-01T23:59:25.793Z,28.48
